sensor_id;sensor_type;location;lat;lon;timestamp;pressure;altitude;pressure_sealevel;temperature;humidity
15050;BME280;7622;42.724;23.250;2023-03-23T00:02:14;94661.56;;;6.89;100.00
15050;BME280;7622;42.724;23.250;2023-03-23T00:04:41;94668.50;;;6.77;100.00
15050;BME280;7622;42.724;23.250;2023-03-23T00:07:08;94666.53;;;6.69;100.00
15050;BME280;7622;42.724;23.250;2023-03-23T00:09:39;94653.84;;;6.78;100.00
15050;BME280;7622;42.724;23.250;2023-03-23T00:12:07;94658.75;;;6.81;100.00
15050;BME280;7622;42.724;23.250;2023-03-23T00:14:34;94652.28;;;6.86;100.00
15050;BME280;7622;42.724;23.250;2023-03-23T00:17:07;94654.53;;;6.80;100.00
15050;BME280;7622;42.724;23.250;2023-03-23T00:19:36;94657.47;;;6.75;100.00
15050;BME280;7622;42.724;23.250;2023-03-23T00:22:17;94658.25;;;6.87;100.00
15050;BME280;7622;42.724;23.250;2023-03-23T00:24:48;94653.59;;;6.81;100.00
15050;BME280;7622;42.724;23.250;2023-03-23T00:27:15;94661.34;;;6.81;100.00
15050;BME280;7622;42.724;23.250;2023-03-23T00:29:42;94665.56;;;6.82;100.00
15050;BME280;7622;42.724;23.250;2023-03-23T00:32:11;94666.94;;;6.86;100.00
15050;BME280;7622;42.724;23.250;2023-03-23T00:34:40;94671.16;;;6.87;100.00
15050;BME280;7622;42.724;23.250;2023-03-23T00:37:09;94666.47;;;6.92;100.00
15050;BME280;7622;42.724;23.250;2023-03-23T00:39:37;94664.16;;;6.78;100.00
15050;BME280;7622;42.724;23.250;2023-03-23T00:42:11;94668.59;;;6.87;100.00
15050;BME280;7622;42.724;23.250;2023-03-23T00:44:39;94676.84;;;6.69;100.00
15050;BME280;7622;42.724;23.250;2023-03-23T00:47:06;94673.66;;;6.77;100.00
15050;BME280;7622;42.724;23.250;2023-03-23T00:49:34;94670.22;;;6.88;100.00
15050;BME280;7622;42.724;23.250;2023-03-23T00:52:02;94662.25;;;6.91;100.00
15050;BME280;7622;42.724;23.250;2023-03-23T00:54:29;94670.47;;;6.85;100.00
15050;BME280;7622;42.724;23.250;2023-03-23T00:56:56;94679.41;;;6.81;100.00
15050;BME280;7622;42.724;23.250;2023-03-23T00:59:24;94681.53;;;6.76;100.00
15050;BME280;7622;42.724;23.250;2023-03-23T01:01:51;94682.00;;;6.69;100.00
15050;BME280;7622;42.724;23.250;2023-03-23T01:04:18;94683.91;;;6.45;100.00
15050;BME280;7622;42.724;23.250;2023-03-23T01:06:49;94680.63;;;6.21;100.00
15050;BME280;7622;42.724;23.250;2023-03-23T01:09:17;94687.25;;;5.90;100.00
15050;BME280;7622;42.724;23.250;2023-03-23T01:11:47;94677.31;;;5.97;100.00
15050;BME280;7622;42.724;23.250;2023-03-23T01:14:15;94686.59;;;5.99;100.00
15050;BME280;7622;42.724;23.250;2023-03-23T01:16:44;94681.81;;;5.82;100.00
15050;BME280;7622;42.724;23.250;2023-03-23T01:19:11;94681.91;;;5.69;100.00
15050;BME280;7622;42.724;23.250;2023-03-23T01:21:38;94686.28;;;5.80;100.00
15050;BME280;7622;42.724;23.250;2023-03-23T01:24:06;94693.88;;;5.81;100.00
15050;BME280;7622;42.724;23.250;2023-03-23T01:26:33;94683.81;;;5.78;100.00
15050;BME280;7622;42.724;23.250;2023-03-23T01:28:59;94648.41;;;5.69;100.00
15050;BME280;7622;42.724;23.250;2023-03-23T01:31:26;94669.88;;;5.81;100.00
15050;BME280;7622;42.724;23.250;2023-03-23T01:33:54;94680.00;;;5.95;100.00
15050;BME280;7622;42.724;23.250;2023-03-23T01:36:23;94671.22;;;5.98;100.00
15050;BME280;7622;42.724;23.250;2023-03-23T01:38:52;94688.44;;;5.97;100.00
15050;BME280;7622;42.724;23.250;2023-03-23T01:41:19;94656.75;;;5.84;100.00
15050;BME280;7622;42.724;23.250;2023-03-23T01:43:54;94680.13;;;5.93;100.00
15050;BME280;7622;42.724;23.250;2023-03-23T01:46:21;94673.13;;;6.07;100.00
15050;BME280;7622;42.724;23.250;2023-03-23T01:48:49;94676.63;;;6.06;100.00
15050;BME280;7622;42.724;23.250;2023-03-23T01:51:19;94667.97;;;6.07;100.00
15050;BME280;7622;42.724;23.250;2023-03-23T01:53:49;94665.59;;;5.92;100.00
15050;BME280;7622;42.724;23.250;2023-03-23T01:56:20;94641.53;;;5.81;100.00
15050;BME280;7622;42.724;23.250;2023-03-23T01:58:50;94659.03;;;5.88;100.00
15050;BME280;7622;42.724;23.250;2023-03-23T02:01:18;94661.38;;;5.91;100.00
15050;BME280;7622;42.724;23.250;2023-03-23T02:03:47;94671.19;;;5.86;100.00
15050;BME280;7622;42.724;23.250;2023-03-23T02:06:14;94672.75;;;6.00;100.00
15050;BME280;7622;42.724;23.250;2023-03-23T02:08:43;94667.00;;;5.97;100.00
15050;BME280;7622;42.724;23.250;2023-03-23T02:11:14;94668.53;;;6.10;100.00
15050;BME280;7622;42.724;23.250;2023-03-23T02:13:41;94674.41;;;6.23;100.00
15050;BME280;7622;42.724;23.250;2023-03-23T02:16:13;94673.00;;;6.19;100.00
15050;BME280;7622;42.724;23.250;2023-03-23T02:18:52;94676.50;;;6.29;100.00
15050;BME280;7622;42.724;23.250;2023-03-23T02:21:39;94667.25;;;6.38;100.00
15050;BME280;7622;42.724;23.250;2023-03-23T02:28:14;94673.00;;;6.53;100.00
15050;BME280;7622;42.724;23.250;2023-03-23T02:30:56;94676.41;;;6.42;100.00
15050;BME280;7622;42.724;23.250;2023-03-23T02:33:40;94673.47;;;6.36;100.00
15050;BME280;7622;42.724;23.250;2023-03-23T02:36:14;94671.38;;;6.41;100.00
15050;BME280;7622;42.724;23.250;2023-03-23T02:38:51;94670.78;;;6.15;100.00
15050;BME280;7622;42.724;23.250;2023-03-23T02:41:22;94646.88;;;6.13;100.00
15050;BME280;7622;42.724;23.250;2023-03-23T02:43:50;94667.25;;;6.38;100.00
15050;BME280;7622;42.724;23.250;2023-03-23T02:46:20;94669.69;;;5.95;100.00
15050;BME280;7622;42.724;23.250;2023-03-23T02:48:50;94671.66;;;5.80;100.00
15050;BME280;7622;42.724;23.250;2023-03-23T02:51:21;94677.50;;;5.82;100.00
15050;BME280;7622;42.724;23.250;2023-03-23T02:53:51;94682.38;;;5.63;100.00
15050;BME280;7622;42.724;23.250;2023-03-23T02:56:22;94684.97;;;5.74;100.00
15050;BME280;7622;42.724;23.250;2023-03-23T02:58:49;94685.00;;;5.85;100.00
15050;BME280;7622;42.724;23.250;2023-03-23T03:04:17;94679.78;;;5.52;100.00
15050;BME280;7622;42.724;23.250;2023-03-23T03:06:51;94683.31;;;5.62;100.00
15050;BME280;7622;42.724;23.250;2023-03-23T03:09:27;94683.75;;;5.56;100.00
15050;BME280;7622;42.724;23.250;2023-03-23T03:12:00;94695.25;;;5.63;100.00
15050;BME280;7622;42.724;23.250;2023-03-23T03:14:34;94696.91;;;5.64;100.00
15050;BME280;7622;42.724;23.250;2023-03-23T03:17:08;94696.91;;;5.64;100.00
15050;BME280;7622;42.724;23.250;2023-03-23T03:19:41;94703.00;;;5.74;100.00
15050;BME280;7622;42.724;23.250;2023-03-23T03:22:09;94688.47;;;5.62;100.00
15050;BME280;7622;42.724;23.250;2023-03-23T03:24:37;94703.66;;;5.54;100.00
15050;BME280;7622;42.724;23.250;2023-03-23T03:27:10;94706.69;;;5.48;100.00
15050;BME280;7622;42.724;23.250;2023-03-23T03:29:41;94701.59;;;5.70;100.00
15050;BME280;7622;42.724;23.250;2023-03-23T03:32:11;94708.78;;;5.78;100.00
15050;BME280;7622;42.724;23.250;2023-03-23T03:34:40;94700.94;;;5.79;100.00
15050;BME280;7622;42.724;23.250;2023-03-23T03:37:07;94704.63;;;5.64;100.00
15050;BME280;7622;42.724;23.250;2023-03-23T03:39:34;94712.88;;;5.80;100.00
15050;BME280;7622;42.724;23.250;2023-03-23T03:42:01;94704.91;;;5.72;100.00
15050;BME280;7622;42.724;23.250;2023-03-23T03:44:28;94713.03;;;5.55;100.00
15050;BME280;7622;42.724;23.250;2023-03-23T03:46:55;94712.53;;;5.39;100.00
15050;BME280;7622;42.724;23.250;2023-03-23T03:49:22;94697.25;;;5.25;100.00
15050;BME280;7622;42.724;23.250;2023-03-23T03:51:50;94711.31;;;5.32;100.00
15050;BME280;7622;42.724;23.250;2023-03-23T03:54:17;94712.81;;;5.34;100.00
15050;BME280;7622;42.724;23.250;2023-03-23T03:56:43;94721.28;;;5.36;100.00
15050;BME280;7622;42.724;23.250;2023-03-23T03:59:11;94704.97;;;5.25;100.00
15050;BME280;7622;42.724;23.250;2023-03-23T04:01:39;94716.69;;;5.29;100.00
15050;BME280;7622;42.724;23.250;2023-03-23T04:04:05;94707.94;;;5.42;100.00
15050;BME280;7622;42.724;23.250;2023-03-23T04:06:33;94708.97;;;5.40;100.00
15050;BME280;7622;42.724;23.250;2023-03-23T04:09:05;94708.56;;;5.46;100.00
15050;BME280;7622;42.724;23.250;2023-03-23T04:11:32;94704.00;;;5.49;100.00
15050;BME280;7622;42.724;23.250;2023-03-23T04:13:59;94705.47;;;5.41;100.00
15050;BME280;7622;42.724;23.250;2023-03-23T04:16:26;94703.72;;;5.41;100.00
15050;BME280;7622;42.724;23.250;2023-03-23T04:18:55;94706.47;;;5.51;100.00
15050;BME280;7622;42.724;23.250;2023-03-23T04:21:22;94711.00;;;5.47;100.00
15050;BME280;7622;42.724;23.250;2023-03-23T04:23:54;94710.41;;;5.44;100.00
15050;BME280;7622;42.724;23.250;2023-03-23T04:26:22;94708.47;;;5.24;100.00
15050;BME280;7622;42.724;23.250;2023-03-23T04:28:49;94710.63;;;5.41;100.00
15050;BME280;7622;42.724;23.250;2023-03-23T04:31:17;94706.47;;;5.51;100.00
15050;BME280;7622;42.724;23.250;2023-03-23T04:33:44;94708.22;;;5.50;100.00
15050;BME280;7622;42.724;23.250;2023-03-23T04:36:12;94681.94;;;5.34;100.00
15050;BME280;7622;42.724;23.250;2023-03-23T04:38:41;94718.88;;;5.46;100.00
15050;BME280;7622;42.724;23.250;2023-03-23T04:41:08;94708.41;;;5.36;100.00
15050;BME280;7622;42.724;23.250;2023-03-23T04:43:36;94714.81;;;5.31;100.00
15050;BME280;7622;42.724;23.250;2023-03-23T04:46:07;94716.50;;;5.19;100.00
15050;BME280;7622;42.724;23.250;2023-03-23T04:48:35;94724.94;;;5.21;100.00
15050;BME280;7622;42.724;23.250;2023-03-23T04:51:04;94717.81;;;5.01;100.00
15050;BME280;7622;42.724;23.250;2023-03-23T04:53:32;94714.22;;;5.03;100.00
15050;BME280;7622;42.724;23.250;2023-03-23T04:55:59;94714.81;;;4.83;100.00
15050;BME280;7622;42.724;23.250;2023-03-23T04:58:27;94723.78;;;4.65;100.00
15050;BME280;7622;42.724;23.250;2023-03-23T05:00:56;94722.28;;;4.50;100.00
15050;BME280;7622;42.724;23.250;2023-03-23T05:03:23;94732.16;;;4.43;100.00
15050;BME280;7622;42.724;23.250;2023-03-23T05:05:50;94739.34;;;4.51;100.00
15050;BME280;7622;42.724;23.250;2023-03-23T05:08:19;94744.78;;;4.59;100.00
15050;BME280;7622;42.724;23.250;2023-03-23T05:10:52;94740.44;;;4.72;100.00
15050;BME280;7622;42.724;23.250;2023-03-23T05:13:19;94745.88;;;4.80;100.00
15050;BME280;7622;42.724;23.250;2023-03-23T05:15:46;94738.94;;;4.69;100.00
15050;BME280;7622;42.724;23.250;2023-03-23T05:18:15;94740.69;;;4.69;100.00
15050;BME280;7622;42.724;23.250;2023-03-23T05:20:42;94746.50;;;4.84;100.00
15050;BME280;7622;42.724;23.250;2023-03-23T05:23:12;94732.59;;;4.86;100.00
15050;BME280;7622;42.724;23.250;2023-03-23T05:25:39;94740.09;;;4.89;100.00
15050;BME280;7622;42.724;23.250;2023-03-23T05:28:06;94741.53;;;4.93;100.00
15050;BME280;7622;42.724;23.250;2023-03-23T05:30:34;94742.88;;;4.86;100.00
15050;BME280;7622;42.724;23.250;2023-03-23T05:33:02;94752.09;;;5.01;100.00
15050;BME280;7622;42.724;23.250;2023-03-23T05:35:32;94751.94;;;5.63;100.00
15050;BME280;7622;42.724;23.250;2023-03-23T05:37:59;94765.16;;;5.59;100.00
15050;BME280;7622;42.724;23.250;2023-03-23T05:40:27;94753.50;;;5.42;100.00
15050;BME280;7622;42.724;23.250;2023-03-23T05:42:54;94760.31;;;5.54;100.00
15050;BME280;7622;42.724;23.250;2023-03-23T05:45:22;94757.56;;;5.92;100.00
15050;BME280;7622;42.724;23.250;2023-03-23T05:47:49;94772.69;;;5.97;100.00
15050;BME280;7622;42.724;23.250;2023-03-23T05:50:16;94771.00;;;5.84;100.00
15050;BME280;7622;42.724;23.250;2023-03-23T05:52:45;94780.28;;;6.22;100.00
15050;BME280;7622;42.724;23.250;2023-03-23T05:55:12;94774.16;;;6.12;100.00
15050;BME280;7622;42.724;23.250;2023-03-23T05:57:39;94775.94;;;6.33;100.00
15050;BME280;7622;42.724;23.250;2023-03-23T06:00:07;94778.06;;;6.95;100.00
15050;BME280;7622;42.724;23.250;2023-03-23T06:02:46;94775.97;;;7.11;100.00
15050;BME280;7622;42.724;23.250;2023-03-23T06:05:14;94780.22;;;7.33;100.00
15050;BME280;7622;42.724;23.250;2023-03-23T06:07:41;94769.03;;;7.87;100.00
15050;BME280;7622;42.724;23.250;2023-03-23T06:10:10;94720.09;;;7.95;100.00
15050;BME280;7622;42.724;23.250;2023-03-23T06:12:37;94773.91;;;8.22;100.00
15050;BME280;7622;42.724;23.250;2023-03-23T06:15:05;94764.75;;;8.99;100.00
15050;BME280;7622;42.724;23.250;2023-03-23T06:17:34;94763.00;;;9.98;100.00
15050;BME280;7622;42.724;23.250;2023-03-23T06:20:01;94763.00;;;9.59;100.00
15050;BME280;7622;42.724;23.250;2023-03-23T06:22:29;94756.75;;;10.29;100.00
15050;BME280;7622;42.724;23.250;2023-03-23T06:24:56;94763.22;;;10.52;100.00
15050;BME280;7622;42.724;23.250;2023-03-23T06:27:24;94754.03;;;10.68;100.00
15050;BME280;7622;42.724;23.250;2023-03-23T06:29:51;94761.25;;;11.38;100.00
15050;BME280;7622;42.724;23.250;2023-03-23T06:32:18;94760.94;;;12.04;100.00
15050;BME280;7622;42.724;23.250;2023-03-23T06:34:45;94760.81;;;12.05;100.00
15050;BME280;7622;42.724;23.250;2023-03-23T06:37:13;94751.88;;;12.77;100.00
15050;BME280;7622;42.724;23.250;2023-03-23T06:39:41;94754.13;;;13.32;100.00
15050;BME280;7622;42.724;23.250;2023-03-23T06:42:09;94754.91;;;13.74;100.00
15050;BME280;7622;42.724;23.250;2023-03-23T06:44:38;94760.63;;;14.18;100.00
15050;BME280;7622;42.724;23.250;2023-03-23T06:47:05;94767.97;;;13.91;100.00
15050;BME280;7622;42.724;23.250;2023-03-23T06:49:33;94761.13;;;13.90;100.00
15050;BME280;7622;42.724;23.250;2023-03-23T06:51:59;94760.97;;;14.32;100.00
15050;BME280;7622;42.724;23.250;2023-03-23T06:54:27;94768.78;;;14.88;100.00
15050;BME280;7622;42.724;23.250;2023-03-23T06:56:54;94769.16;;;14.69;100.00
15050;BME280;7622;42.724;23.250;2023-03-23T06:59:21;94767.94;;;14.96;100.00
15050;BME280;7622;42.724;23.250;2023-03-23T07:01:49;94778.78;;;14.85;100.00
15050;BME280;7622;42.724;23.250;2023-03-23T07:04:16;94779.06;;;15.06;100.00
15050;BME280;7622;42.724;23.250;2023-03-23T07:06:42;94774.44;;;15.16;100.00
15050;BME280;7622;42.724;23.250;2023-03-23T07:09:09;94776.31;;;14.83;100.00
15050;BME280;7622;42.724;23.250;2023-03-23T07:11:36;94782.38;;;14.84;100.00
15050;BME280;7622;42.724;23.250;2023-03-23T07:14:03;94771.78;;;15.32;100.00
15050;BME280;7622;42.724;23.250;2023-03-23T07:16:30;94777.13;;;15.55;92.70
15050;BME280;7622;42.724;23.250;2023-03-23T07:18:58;94784.44;;;15.52;89.77
15050;BME280;7622;42.724;23.250;2023-03-23T07:21:26;94766.84;;;15.29;91.18
15050;BME280;7622;42.724;23.250;2023-03-23T07:23:52;94785.31;;;15.83;85.53
15050;BME280;7622;42.724;23.250;2023-03-23T07:26:19;94783.81;;;16.11;86.96
15050;BME280;7622;42.724;23.250;2023-03-23T07:28:46;94783.94;;;16.18;79.72
15050;BME280;7622;42.724;23.250;2023-03-23T07:31:13;94789.75;;;16.05;84.30
15050;BME280;7622;42.724;23.250;2023-03-23T07:33:40;94777.47;;;16.29;80.94
15050;BME280;7622;42.724;23.250;2023-03-23T07:36:09;94770.72;;;16.34;76.19
15050;BME280;7622;42.724;23.250;2023-03-23T07:38:36;94784.69;;;16.49;76.56
15050;BME280;7622;42.724;23.250;2023-03-23T07:41:04;94781.50;;;17.14;73.10
15050;BME280;7622;42.724;23.250;2023-03-23T07:43:31;94793.13;;;16.60;73.99
15050;BME280;7622;42.724;23.250;2023-03-23T07:45:58;94780.91;;;16.52;73.82
15050;BME280;7622;42.724;23.250;2023-03-23T07:48:25;94788.31;;;16.71;71.28
15050;BME280;7622;42.724;23.250;2023-03-23T07:50:52;94790.22;;;16.77;72.02
15050;BME280;7622;42.724;23.250;2023-03-23T07:53:20;94788.38;;;17.01;71.45
15050;BME280;7622;42.724;23.250;2023-03-23T07:55:49;94789.69;;;17.85;68.43
15050;BME280;7622;42.724;23.250;2023-03-23T07:58:16;94787.97;;;18.70;63.76
15050;BME280;7622;42.724;23.250;2023-03-23T08:00:45;94776.38;;;18.65;61.93
15050;BME280;7622;42.724;23.250;2023-03-23T08:03:13;94791.16;;;18.44;62.98
15050;BME280;7622;42.724;23.250;2023-03-23T08:05:41;94784.03;;;18.60;61.56
15050;BME280;7622;42.724;23.250;2023-03-23T08:08:08;94787.31;;;18.26;62.73
15050;BME280;7622;42.724;23.250;2023-03-23T08:10:36;94794.66;;;18.30;63.39
15050;BME280;7622;42.724;23.250;2023-03-23T08:13:03;94796.75;;;18.20;61.32
15050;BME280;7622;42.724;23.250;2023-03-23T08:15:31;94788.47;;;18.59;60.24
15050;BME280;7622;42.724;23.250;2023-03-23T08:18:03;94799.50;;;17.91;62.03
15050;BME280;7622;42.724;23.250;2023-03-23T08:20:30;94796.72;;;17.99;62.75
15050;BME280;7622;42.724;23.250;2023-03-23T08:22:58;94799.94;;;18.73;60.83
15050;BME280;7622;42.724;23.250;2023-03-23T08:25:25;94788.06;;;19.11;60.58
15050;BME280;7622;42.724;23.250;2023-03-23T08:27:54;94790.78;;;18.97;57.77
15050;BME280;7622;42.724;23.250;2023-03-23T08:30:21;94788.81;;;18.77;56.90
15050;BME280;7622;42.724;23.250;2023-03-23T08:32:50;94788.97;;;18.97;57.33
15050;BME280;7622;42.724;23.250;2023-03-23T08:35:18;94790.16;;;19.22;55.66
15050;BME280;7622;42.724;23.250;2023-03-23T08:37:45;94790.06;;;19.09;56.15
15050;BME280;7622;42.724;23.250;2023-03-23T08:40:17;94792.19;;;19.20;55.48
15050;BME280;7622;42.724;23.250;2023-03-23T08:42:45;94789.13;;;18.46;53.65
15050;BME280;7622;42.724;23.250;2023-03-23T08:45:15;94786.44;;;18.61;54.72
15050;BME280;7622;42.724;23.250;2023-03-23T08:47:43;94786.50;;;18.46;55.76
15050;BME280;7622;42.724;23.250;2023-03-23T08:50:14;94786.50;;;19.23;54.82
15050;BME280;7622;42.724;23.250;2023-03-23T08:52:42;94789.81;;;19.60;53.10
15050;BME280;7622;42.724;23.250;2023-03-23T08:55:09;94790.59;;;19.26;51.20
15050;BME280;7622;42.724;23.250;2023-03-23T08:57:36;94795.03;;;19.53;48.86
15050;BME280;7622;42.724;23.250;2023-03-23T09:00:06;94785.09;;;19.49;48.49
15050;BME280;7622;42.724;23.250;2023-03-23T09:02:41;94788.16;;;19.24;48.42
15050;BME280;7622;42.724;23.250;2023-03-23T09:05:08;94786.09;;;19.48;47.59
15050;BME280;7622;42.724;23.250;2023-03-23T09:07:37;94795.78;;;18.42;49.29
15050;BME280;7622;42.724;23.250;2023-03-23T09:10:06;94777.72;;;18.39;49.27
15050;BME280;7622;42.724;23.250;2023-03-23T09:12:33;94786.59;;;17.96;50.92
15050;BME280;7622;42.724;23.250;2023-03-23T09:15:00;94762.97;;;18.38;50.02
15050;BME280;7622;42.724;23.250;2023-03-23T09:17:30;94786.97;;;18.99;48.79
15050;BME280;7622;42.724;23.250;2023-03-23T09:19:59;94779.00;;;18.65;49.48
15050;BME280;7622;42.724;23.250;2023-03-23T09:22:26;94776.06;;;18.32;50.73
15050;BME280;7622;42.724;23.250;2023-03-23T09:24:53;94786.34;;;18.12;51.15
15050;BME280;7622;42.724;23.250;2023-03-23T09:27:20;94778.28;;;18.35;50.82
15050;BME280;7622;42.724;23.250;2023-03-23T09:29:46;94776.31;;;17.80;51.17
15050;BME280;7622;42.724;23.250;2023-03-23T09:32:14;94773.22;;;18.55;49.98
15050;BME280;7622;42.724;23.250;2023-03-23T09:34:41;94768.25;;;18.60;49.57
15050;BME280;7622;42.724;23.250;2023-03-23T09:37:09;94763.69;;;19.03;49.27
15050;BME280;7622;42.724;23.250;2023-03-23T09:39:38;94769.19;;;19.36;48.37
15050;BME280;7622;42.724;23.250;2023-03-23T09:42:18;94773.66;;;18.79;48.30
15050;BME280;7622;42.724;23.250;2023-03-23T09:44:57;94770.03;;;18.38;49.28
15050;BME280;7622;42.724;23.250;2023-03-23T09:47:46;94769.31;;;18.93;48.62
15050;BME280;7622;42.724;23.250;2023-03-23T09:50:17;94758.16;;;18.91;48.58
15050;BME280;7622;42.724;23.250;2023-03-23T09:52:51;94761.88;;;17.90;49.96
15050;BME280;7622;42.724;23.250;2023-03-23T09:55:20;94755.50;;;17.99;50.57
15050;BME280;7622;42.724;23.250;2023-03-23T09:57:53;94764.09;;;18.50;49.92
15050;BME280;7622;42.724;23.250;2023-03-23T10:00:25;94760.94;;;18.83;49.01
15050;BME280;7622;42.724;23.250;2023-03-23T10:02:59;94754.34;;;18.94;48.33
15050;BME280;7622;42.724;23.250;2023-03-23T10:05:31;94761.41;;;19.21;48.83
15050;BME280;7622;42.724;23.250;2023-03-23T10:08:01;94754.00;;;19.10;48.27
15050;BME280;7622;42.724;23.250;2023-03-23T10:10:38;94751.75;;;18.72;48.76
15050;BME280;7622;42.724;23.250;2023-03-23T10:13:17;94759.19;;;18.47;48.89
15050;BME280;7622;42.724;23.250;2023-03-23T10:15:46;94755.19;;;18.52;49.73
15050;BME280;7622;42.724;23.250;2023-03-23T10:18:17;94749.81;;;18.17;49.63
15050;BME280;7622;42.724;23.250;2023-03-23T10:20:48;94753.97;;;18.54;49.13
15050;BME280;7622;42.724;23.250;2023-03-23T10:23:37;94746.41;;;18.87;48.31
15050;BME280;7622;42.724;23.250;2023-03-23T10:26:12;94742.81;;;19.29;48.07
15050;BME280;7622;42.724;23.250;2023-03-23T10:28:44;94746.91;;;19.45;47.57
15050;BME280;7622;42.724;23.250;2023-03-23T10:31:14;94742.38;;;19.25;47.84
15050;BME280;7622;42.724;23.250;2023-03-23T10:33:47;94747.84;;;19.31;47.57
15050;BME280;7622;42.724;23.250;2023-03-23T10:36:18;94740.22;;;19.77;46.56
15050;BME280;7622;42.724;23.250;2023-03-23T10:38:53;94744.09;;;19.87;45.77
15050;BME280;7622;42.724;23.250;2023-03-23T10:41:23;94747.69;;;19.39;46.64
15050;BME280;7622;42.724;23.250;2023-03-23T10:43:50;94749.38;;;19.12;47.08
15050;BME280;7622;42.724;23.250;2023-03-23T10:46:26;94748.09;;;19.36;47.18
15050;BME280;7622;42.724;23.250;2023-03-23T10:48:54;94740.59;;;19.74;45.43
15050;BME280;7622;42.724;23.250;2023-03-23T10:51:35;94729.16;;;19.19;46.00
15050;BME280;7622;42.724;23.250;2023-03-23T10:54:05;94742.06;;;19.42;46.15
15050;BME280;7622;42.724;23.250;2023-03-23T10:56:36;94723.63;;;20.02;45.51
15050;BME280;7622;42.724;23.250;2023-03-23T10:59:14;94718.44;;;20.55;44.88
15050;BME280;7622;42.724;23.250;2023-03-23T11:01:44;94723.19;;;19.86;46.06
15050;BME280;7622;42.724;23.250;2023-03-23T11:04:13;94721.94;;;19.75;46.50
15050;BME280;7622;42.724;23.250;2023-03-23T11:06:44;94727.38;;;18.42;47.65
15050;BME280;7622;42.724;23.250;2023-03-23T11:09:15;94732.06;;;18.68;47.59
15050;BME280;7622;42.724;23.250;2023-03-23T11:11:49;94723.94;;;18.91;46.74
15050;BME280;7622;42.724;23.250;2023-03-23T11:14:17;94715.06;;;19.87;45.88
15050;BME280;7622;42.724;23.250;2023-03-23T11:16:49;94726.47;;;19.06;47.27
15050;BME280;7622;42.724;23.250;2023-03-23T11:19:22;94721.53;;;18.96;46.98
15050;BME280;7622;42.724;23.250;2023-03-23T11:21:51;94713.47;;;19.04;47.09
15050;BME280;7622;42.724;23.250;2023-03-23T11:24:22;94719.50;;;19.33;46.26
15050;BME280;7622;42.724;23.250;2023-03-23T11:26:50;94709.97;;;19.32;46.60
15050;BME280;7622;42.724;23.250;2023-03-23T11:29:20;94705.31;;;19.81;46.05
15050;BME280;7622;42.724;23.250;2023-03-23T11:31:50;94694.19;;;19.86;45.65
15050;BME280;7622;42.724;23.250;2023-03-23T11:34:19;94692.63;;;20.31;45.12
15050;BME280;7622;42.724;23.250;2023-03-23T11:36:48;94688.56;;;20.09;45.78
15050;BME280;7622;42.724;23.250;2023-03-23T11:39:23;94688.59;;;20.35;45.53
15050;BME280;7622;42.724;23.250;2023-03-23T11:41:51;94693.91;;;19.61;46.63
15050;BME280;7622;42.724;23.250;2023-03-23T11:44:21;94681.72;;;19.53;47.39
15050;BME280;7622;42.724;23.250;2023-03-23T11:46:55;94673.34;;;20.04;48.00
15050;BME280;7622;42.724;23.250;2023-03-23T11:49:32;94674.34;;;19.96;45.93
15050;BME280;7622;42.724;23.250;2023-03-23T11:52:08;94688.53;;;19.35;46.75
15050;BME280;7622;42.724;23.250;2023-03-23T11:54:40;94681.19;;;18.61;48.09
15050;BME280;7622;42.724;23.250;2023-03-23T11:57:11;94655.53;;;18.42;47.54
15050;BME280;7622;42.724;23.250;2023-03-23T11:59:39;94684.41;;;18.57;48.65
15050;BME280;7622;42.724;23.250;2023-03-23T12:02:24;94678.00;;;17.74;50.08
15050;BME280;7622;42.724;23.250;2023-03-23T12:04:57;94679.38;;;17.34;51.55
15050;BME280;7622;42.724;23.250;2023-03-23T12:07:46;94673.69;;;17.01;51.46
15050;BME280;7622;42.724;23.250;2023-03-23T12:10:25;94669.63;;;16.84;52.04
15050;BME280;7622;42.724;23.250;2023-03-23T12:13:02;94678.03;;;16.65;52.15
15050;BME280;7622;42.724;23.250;2023-03-23T12:15:36;94659.94;;;16.84;51.46
15050;BME280;7622;42.724;23.250;2023-03-23T12:18:12;94650.84;;;17.16;50.88
15050;BME280;7622;42.724;23.250;2023-03-23T12:20:52;94646.84;;;16.84;50.97
15050;BME280;7622;42.724;23.250;2023-03-23T12:23:24;94655.97;;;17.39;51.20
15050;BME280;7622;42.724;23.250;2023-03-23T12:26:18;94622.22;;;16.85;51.53
15050;BME280;7622;42.724;23.250;2023-03-23T12:29:08;94653.63;;;16.93;51.48
15050;BME280;7622;42.724;23.250;2023-03-23T12:31:49;94653.56;;;17.23;51.02
15050;BME280;7622;42.724;23.250;2023-03-23T12:34:24;94646.91;;;17.06;50.89
15050;BME280;7622;42.724;23.250;2023-03-23T12:37:04;94643.72;;;16.96;51.23
15050;BME280;7622;42.724;23.250;2023-03-23T12:39:57;94642.00;;;17.03;51.01
15050;BME280;7622;42.724;23.250;2023-03-23T12:42:32;94645.63;;;17.02;51.98
15050;BME280;7622;42.724;23.250;2023-03-23T12:45:06;94646.00;;;17.13;50.87
15050;BME280;7622;42.724;23.250;2023-03-23T12:47:37;94643.44;;;17.20;51.39
15050;BME280;7622;42.724;23.250;2023-03-23T12:50:13;94631.47;;;17.68;50.82
15050;BME280;7622;42.724;23.250;2023-03-23T12:52:49;94635.91;;;17.89;49.62
15050;BME280;7622;42.724;23.250;2023-03-23T12:55:20;94635.16;;;17.38;50.75
15050;BME280;7622;42.724;23.250;2023-03-23T12:57:53;94625.81;;;17.14;51.35
15050;BME280;7622;42.724;23.250;2023-03-23T13:00:26;94631.31;;;17.19;50.87
15050;BME280;7622;42.724;23.250;2023-03-23T13:02:59;94627.53;;;17.07;51.34
15050;BME280;7622;42.724;23.250;2023-03-23T13:05:35;94630.31;;;17.20;50.74
15050;BME280;7622;42.724;23.250;2023-03-23T13:08:07;94627.38;;;17.29;51.07
15050;BME280;7622;42.724;23.250;2023-03-23T13:10:39;94624.59;;;16.66;51.45
15050;BME280;7622;42.724;23.250;2023-03-23T13:13:14;94620.78;;;16.68;51.73
15050;BME280;7622;42.724;23.250;2023-03-23T13:15:49;94618.94;;;16.98;51.76
15050;BME280;7622;42.724;23.250;2023-03-23T13:21:11;94623.06;;;16.71;51.46
15050;BME280;7622;42.724;23.250;2023-03-23T13:23:42;94616.16;;;16.70;51.24
15050;BME280;7622;42.724;23.250;2023-03-23T13:26:12;94606.53;;;17.07;51.44